Time,TemperatureF,DewpointF,PressureIn,WindDirection,WindDirectionDegrees,WindSpeedMPH,WindSpeedGustMPH,Humidity,HourlyPrecipIn,Conditions,Clouds,dailyrainin,SoftwareType,DateUTC
2013-03-14 00:02:00,33.0,10.0,30.24,SSE,161,0.0,3.0,37,0.00,,,0.00,,2013-03-14 05:02:00,
2013-03-14 00:12:00,33.0,10.0,30.24,SSE,161,0.0,3.0,37,0.00,,,0.00,,2013-03-14 05:12:00,
2013-03-14 00:22:00,31.0,9.0,30.25,SSE,161,1.0,3.0,39,0.00,,,0.00,,2013-03-14 05:22:00,
2013-03-14 00:33:00,31.0,9.0,30.25,SSE,161,1.0,3.0,39,0.00,,,0.00,,2013-03-14 05:33:00,
2013-03-14 00:42:00,31.0,9.0,30.25,SSE,161,1.0,3.0,39,0.00,,,0.00,,2013-03-14 05:42:00,
2013-03-14 00:53:00,31.0,10.0,30.22,SSE,161,1.0,3.0,40,0.00,,,0.00,,2013-03-14 05:53:00,
2013-03-14 01:02:00,31.0,10.0,30.22,SSE,161,1.0,3.0,40,0.00,,,0.00,,2013-03-14 06:02:00,
2013-03-14 01:12:00,31.0,10.0,30.22,SSE,161,1.0,3.0,40,0.00,,,0.00,,2013-03-14 06:12:00,
2013-03-14 01:22:00,31.0,10.0,30.22,SSE,161,1.0,3.0,40,0.00,,,0.00,,2013-03-14 06:22:00,
2013-03-14 01:32:00,31.0,10.0,30.22,SSE,161,1.0,3.0,40,0.00,,,0.00,,2013-03-14 06:32:00,
2013-03-14 01:52:00,30.0,11.0,30.21,SSE,164,2.0,3.0,44,0.00,,,0.00,,2013-03-14 06:52:00,
2013-03-14 02:02:00,30.0,11.0,30.21,SSE,164,2.0,3.0,44,0.00,,,0.00,,2013-03-14 07:02:00,
2013-03-14 02:12:00,30.0,11.0,30.21,SSE,164,2.0,3.0,44,0.00,,,0.00,,2013-03-14 07:12:00,
2013-03-14 02:22:00,29.0,10.0,30.22,SSE,164,1.0,3.0,45,0.00,,,0.00,,2013-03-14 07:22:00,
2013-03-14 02:32:00,29.0,10.0,30.22,SSE,164,1.0,3.0,45,0.00,,,0.00,,2013-03-14 07:32:00,
2013-03-14 02:43:00,29.0,10.0,30.22,SSE,164,1.0,3.0,45,0.00,,,0.00,,2013-03-14 07:43:00,
2013-03-14 02:52:00,28.0,9.0,30.21,SSE,164,2.0,2.0,45,0.00,,,0.00,,2013-03-14 07:52:00,
2013-03-14 03:02:00,28.0,9.0,30.21,SSE,164,2.0,2.0,45,0.00,,,0.00,,2013-03-14 08:02:00,
2013-03-14 03:12:00,28.0,9.0,30.21,SSE,164,2.0,2.0,45,0.00,,,0.00,,2013-03-14 08:12:00,
2013-03-14 03:22:00,28.0,9.0,30.21,SSE,164,2.0,2.0,45,0.00,,,0.00,,2013-03-14 08:22:00,
2013-03-14 03:32:00,28.0,9.0,30.21,SSE,164,2.0,2.0,45,0.00,,,0.00,,2013-03-14 08:32:00,
2013-03-14 03:52:00,27.0,9.0,30.20,SSE,164,0.0,2.0,46,0.00,,,0.00,,2013-03-14 08:52:00,
2013-03-14 04:01:00,27.0,9.0,30.20,SSE,164,0.0,2.0,46,0.00,,,0.00,,2013-03-14 09:01:00,
2013-03-14 04:12:00,27.0,9.0,30.20,SSE,164,0.0,2.0,46,0.00,,,0.00,,2013-03-14 09:12:00,
2013-03-14 04:22:00,27.0,9.0,30.20,SSE,164,0.0,2.0,46,0.00,,,0.00,,2013-03-14 09:22:00,
2013-03-14 04:32:00,27.0,9.0,30.20,SSE,164,0.0,2.0,46,0.00,,,0.00,,2013-03-14 09:32:00,
2013-03-14 04:52:00,27.0,9.0,30.20,SSE,164,0.0,3.0,46,0.00,,,0.00,,2013-03-14 09:52:00,
2013-03-14 05:02:00,27.0,9.0,30.20,SSE,164,0.0,3.0,46,0.00,,,0.00,,2013-03-14 10:02:00,
2013-03-14 05:12:00,27.0,9.0,30.20,SSE,164,0.0,3.0,46,0.00,,,0.00,,2013-03-14 10:12:00,
2013-03-14 05:22:00,27.0,10.0,30.20,SSE,164,0.0,2.0,48,0.00,,,0.00,,2013-03-14 10:22:00,
2013-03-14 05:32:00,27.0,10.0,30.20,SSE,164,0.0,2.0,48,0.00,,,0.00,,2013-03-14 10:32:00,
2013-03-14 05:42:00,27.0,10.0,30.20,SSE,164,0.0,2.0,48,0.00,,,0.00,,2013-03-14 10:42:00,
2013-03-14 05:52:00,28.0,10.0,30.19,SSE,164,1.0,3.0,46,0.00,,,0.00,,2013-03-14 10:52:00,
2013-03-14 06:02:00,28.0,10.0,30.19,SSE,164,1.0,3.0,46,0.00,,,0.00,,2013-03-14 11:02:00,
2013-03-14 06:12:00,28.0,10.0,30.19,SSE,164,1.0,3.0,46,0.00,,,0.00,,2013-03-14 11:12:00,
2013-03-14 06:22:00,27.0,10.0,30.19,SSE,164,2.0,3.0,49,0.00,,,0.00,,2013-03-14 11:22:00,
2013-03-14 06:32:00,27.0,10.0,30.19,SSE,164,2.0,3.0,49,0.00,,,0.00,,2013-03-14 11:32:00,
2013-03-14 06:42:00,27.0,10.0,30.19,SSE,164,2.0,3.0,49,0.00,,,0.00,,2013-03-14 11:42:00,
2013-03-14 06:52:00,26.0,9.0,30.23,SSE,164,1.0,3.0,48,0.00,,,0.00,,2013-03-14 11:52:00,
2013-03-14 07:02:00,26.0,9.0,30.23,SSE,164,1.0,3.0,48,0.00,,,0.00,,2013-03-14 12:02:00,
2013-03-14 07:12:00,26.0,9.0,30.23,SSE,164,1.0,3.0,48,0.00,,,0.00,,2013-03-14 12:12:00,
2013-03-14 07:22:00,27.0,9.0,30.23,SSE,164,2.0,3.0,47,0.00,,,0.00,,2013-03-14 12:22:00,
2013-03-14 07:33:00,27.0,9.0,30.23,SSE,164,2.0,3.0,47,0.00,,,0.00,,2013-03-14 12:33:00,
2013-03-14 07:43:00,27.0,9.0,30.23,SSE,164,2.0,3.0,47,0.00,,,0.00,,2013-03-14 12:43:00,
2013-03-14 07:52:00,27.0,9.0,30.23,SSE,164,2.0,3.0,47,0.00,,,0.00,,2013-03-14 12:52:00,
2013-03-14 08:02:00,27.0,9.0,30.23,SSE,164,2.0,3.0,47,0.00,,,0.00,,2013-03-14 13:02:00,
2013-03-14 08:22:00,26.0,10.0,30.28,SSE,164,2.0,3.0,50,0.00,,,0.00,,2013-03-14 13:22:00,
2013-03-14 08:32:00,26.0,10.0,30.28,SSE,164,2.0,3.0,50,0.00,,,0.00,,2013-03-14 13:32:00,
2013-03-14 08:43:00,26.0,10.0,30.28,SSE,164,2.0,3.0,50,0.00,,,0.00,,2013-03-14 13:43:00,
2013-03-14 08:52:00,26.0,10.0,30.38,SSE,164,0.0,2.0,50,0.00,,,0.00,,2013-03-14 13:52:00,
2013-03-14 09:02:00,26.0,10.0,30.38,SSE,164,0.0,2.0,50,0.00,,,0.00,,2013-03-14 14:02:00,
2013-03-14 09:12:00,26.0,10.0,30.38,SSE,164,0.0,2.0,50,0.00,,,0.00,,2013-03-14 14:12:00,
2013-03-14 09:22:00,26.0,10.0,30.38,SSE,164,0.0,2.0,50,0.00,,,0.00,,2013-03-14 14:22:00,
2013-03-14 09:32:00,33.0,12.0,30.33,SSE,164,1.0,3.0,42,0.00,,,0.00,,2013-03-14 14:32:00,
2013-03-14 09:42:00,33.0,12.0,30.33,SSE,164,1.0,3.0,42,0.00,,,0.00,,2013-03-14 14:42:00,
2013-03-14 09:53:00,46.0,14.0,30.31,SSE,164,1.0,3.0,27,0.00,,,0.00,,2013-03-14 14:53:00,
2013-03-14 10:02:00,46.0,14.0,30.31,SSE,164,1.0,3.0,27,0.00,,,0.00,,2013-03-14 15:02:00,
2013-03-14 10:12:00,46.0,14.0,30.31,SSE,164,1.0,3.0,27,0.00,,,0.00,,2013-03-14 15:12:00,
2013-03-14 10:22:00,46.0,14.0,30.31,SSE,164,1.0,3.0,27,0.00,,,0.00,,2013-03-14 15:22:00,
2013-03-14 10:32:00,56.0,14.0,30.26,SSE,164,0.0,3.0,19,0.00,,,0.00,,2013-03-14 15:32:00,
2013-03-14 10:43:00,56.0,14.0,30.26,SSE,164,0.0,3.0,19,0.00,,,0.00,,2013-03-14 15:43:00,
2013-03-14 10:52:00,56.0,14.0,30.26,SSE,164,0.0,3.0,19,0.00,,,0.00,,2013-03-14 15:52:00,
2013-03-14 11:03:00,62.0,17.0,30.23,SSE,167,1.0,3.0,17,0.00,,,0.00,,2013-03-14 16:03:00,
2013-03-14 11:12:00,62.0,17.0,30.23,SSE,167,1.0,3.0,17,0.00,,,0.00,,2013-03-14 16:12:00,
2013-03-14 11:22:00,62.0,17.0,30.23,SSE,167,1.0,3.0,17,0.00,,,0.00,,2013-03-14 16:22:00,
2013-03-14 11:32:00,66.0,12.0,30.21,South,174,2.0,5.0,12,0.00,,,0.00,,2013-03-14 16:32:00,
2013-03-14 11:42:00,66.0,12.0,30.21,South,174,2.0,5.0,12,0.00,,,0.00,,2013-03-14 16:42:00,
2013-03-14 11:52:00,66.0,12.0,30.21,South,174,2.0,5.0,12,0.00,,,0.00,,2013-03-14 16:52:00,
2013-03-14 12:02:00,68.0,9.0,30.22,ENE,62,1.0,6.0,10,0.00,,,0.00,,2013-03-14 17:02:00,
2013-03-14 12:12:00,68.0,9.0,30.22,ENE,62,1.0,6.0,10,0.00,,,0.00,,2013-03-14 17:12:00,
2013-03-14 12:23:00,68.0,9.0,30.22,ENE,62,1.0,6.0,10,0.00,,,0.00,,2013-03-14 17:23:00,
2013-03-14 12:32:00,69.0,10.0,30.21,NNE,14,1.0,8.0,10,0.00,,,0.00,,2013-03-14 17:32:00,
2013-03-14 12:42:00,69.0,10.0,30.21,NNE,14,1.0,8.0,10,0.00,,,0.00,,2013-03-14 17:42:00,
2013-03-14 12:53:00,69.0,10.0,30.21,NNE,14,1.0,8.0,10,0.00,,,0.00,,2013-03-14 17:53:00,
2013-03-14 13:03:00,70.0,9.0,30.20,NNE,17,2.0,12.0,9,0.00,,,0.00,,2013-03-14 18:03:00,
2013-03-14 13:12:00,70.0,9.0,30.20,NNE,17,2.0,12.0,9,0.00,,,0.00,,2013-03-14 18:12:00,
2013-03-14 13:23:00,70.0,9.0,30.20,NNE,17,2.0,12.0,9,0.00,,,0.00,,2013-03-14 18:23:00,
2013-03-14 13:33:00,69.0,10.0,30.21,WSW,237,6.0,12.0,10,0.00,,,0.00,,2013-03-14 18:33:00,
2013-03-14 13:43:00,69.0,10.0,30.21,WSW,237,6.0,12.0,10,0.00,,,0.00,,2013-03-14 18:43:00,
2013-03-14 13:52:00,69.0,10.0,30.21,WSW,237,6.0,12.0,10,0.00,,,0.00,,2013-03-14 18:52:00,
2013-03-14 14:02:00,72.0,10.0,30.19,NE,42,2.0,14.0,9,0.00,,,0.00,,2013-03-14 19:02:00,
2013-03-14 14:12:00,72.0,10.0,30.19,NE,42,2.0,14.0,9,0.00,,,0.00,,2013-03-14 19:12:00,
2013-03-14 14:23:00,72.0,10.0,30.19,NE,42,2.0,14.0,9,0.00,,,0.00,,2013-03-14 19:23:00,
2013-03-14 14:32:00,71.0,9.0,30.17,SSW,202,3.0,10.0,9,0.00,,,0.00,,2013-03-14 19:32:00,
2013-03-14 14:43:00,71.0,9.0,30.17,SSW,202,3.0,10.0,9,0.00,,,0.00,,2013-03-14 19:43:00,
2013-03-14 14:52:00,71.0,9.0,30.17,SSW,202,3.0,10.0,9,0.00,,,0.00,,2013-03-14 19:52:00,
2013-03-14 15:02:00,72.0,10.0,30.18,NNW,346,3.0,13.0,9,0.00,,,0.00,,2013-03-14 20:02:00,
2013-03-14 15:12:00,72.0,10.0,30.18,NNW,346,3.0,13.0,9,0.00,,,0.00,,2013-03-14 20:12:00,
2013-03-14 15:22:00,72.0,10.0,30.18,NNW,346,3.0,13.0,9,0.00,,,0.00,,2013-03-14 20:22:00,
2013-03-14 15:32:00,72.0,12.0,30.16,ENE,59,4.0,12.0,10,0.00,,,0.00,,2013-03-14 20:32:00,
2013-03-14 15:42:00,72.0,12.0,30.16,ENE,59,4.0,12.0,10,0.00,,,0.00,,2013-03-14 20:42:00,
2013-03-14 15:52:00,72.0,12.0,30.16,ENE,59,4.0,12.0,10,0.00,,,0.00,,2013-03-14 20:52:00,
2013-03-14 16:02:00,72.0,12.0,30.13,SSE,158,6.0,12.0,10,0.00,,,0.00,,2013-03-14 21:02:00,
2013-03-14 16:12:00,72.0,12.0,30.13,SSE,158,6.0,12.0,10,0.00,,,0.00,,2013-03-14 21:12:00,
2013-03-14 16:22:00,72.0,12.0,30.13,SSE,158,6.0,12.0,10,0.00,,,0.00,,2013-03-14 21:22:00,
2013-03-14 16:32:00,73.0,11.0,30.11,West,260,1.0,12.0,9,0.00,,,0.00,,2013-03-14 21:32:00,
2013-03-14 16:43:00,73.0,11.0,30.11,West,260,1.0,12.0,9,0.00,,,0.00,,2013-03-14 21:43:00,
2013-03-14 16:53:00,73.0,11.0,30.11,West,260,1.0,12.0,9,0.00,,,0.00,,2013-03-14 21:53:00,
2013-03-14 17:03:00,73.0,11.0,30.11,West,272,5.0,12.0,9,0.00,,,0.00,,2013-03-14 22:03:00,
2013-03-14 17:13:00,73.0,11.0,30.11,West,272,5.0,12.0,9,0.00,,,0.00,,2013-03-14 22:13:00,
2013-03-14 17:23:00,73.0,11.0,30.11,West,272,5.0,12.0,9,0.00,,,0.00,,2013-03-14 22:23:00,
2013-03-14 17:33:00,74.0,12.0,30.10,NE,38,2.0,13.0,9,0.00,,,0.00,,2013-03-14 22:33:00,
2013-03-14 17:42:00,74.0,12.0,30.10,NE,38,2.0,13.0,9,0.00,,,0.00,,2013-03-14 22:42:00,
2013-03-14 17:52:00,74.0,12.0,30.10,NE,38,2.0,13.0,9,0.00,,,0.00,,2013-03-14 22:52:00,
2013-03-14 18:02:00,74.0,12.0,30.10,WNW,292,1.0,13.0,9,0.00,,,0.00,,2013-03-14 23:02:00,
2013-03-14 18:12:00,74.0,12.0,30.10,WNW,292,1.0,13.0,9,0.00,,,0.00,,2013-03-14 23:12:00,
2013-03-14 18:22:00,74.0,12.0,30.10,WNW,292,1.0,13.0,9,0.00,,,0.00,,2013-03-14 23:22:00,
2013-03-14 18:33:00,73.0,11.0,30.09,WSW,258,2.0,10.0,9,0.00,,,0.00,,2013-03-14 23:33:00,
2013-03-14 18:43:00,73.0,11.0,30.09,WSW,258,2.0,10.0,9,0.00,,,0.00,,2013-03-14 23:43:00,
2013-03-14 18:53:00,73.0,11.0,30.09,WSW,258,2.0,10.0,9,0.00,,,0.00,,2013-03-14 23:53:00,
2013-03-14 19:02:00,73.0,11.0,30.10,North,350,1.0,12.0,9,0.00,,,0.00,,2013-03-15 00:02:00,
2013-03-14 19:12:00,73.0,11.0,30.10,North,350,1.0,12.0,9,0.00,,,0.00,,2013-03-15 00:12:00,
2013-03-14 19:22:00,73.0,11.0,30.10,North,350,1.0,12.0,9,0.00,,,0.00,,2013-03-15 00:22:00,
2013-03-14 19:32:00,70.0,11.0,30.12,NNE,28,0.0,7.0,10,0.00,,,0.00,,2013-03-15 00:32:00,
2013-03-14 19:43:00,70.0,11.0,30.12,NNE,28,0.0,7.0,10,0.00,,,0.00,,2013-03-15 00:43:00,
2013-03-14 19:52:00,67.0,13.0,30.16,North,0,0.0,6.0,12,0.00,,,0.00,,2013-03-15 00:52:00,
2013-03-14 20:02:00,67.0,13.0,30.16,North,0,0.0,6.0,12,0.00,,,0.00,,2013-03-15 01:02:00,
2013-03-14 20:12:00,67.0,13.0,30.16,North,0,0.0,6.0,12,0.00,,,0.00,,2013-03-15 01:12:00,
2013-03-14 20:22:00,58.0,12.0,30.22,North,0,0.0,3.0,16,0.00,,,0.00,,2013-03-15 01:22:00,
2013-03-14 20:32:00,58.0,12.0,30.22,North,0,0.0,3.0,16,0.00,,,0.00,,2013-03-15 01:32:00,
2013-03-14 20:43:00,58.0,12.0,30.22,North,0,0.0,3.0,16,0.00,,,0.00,,2013-03-15 01:43:00,
2013-03-14 20:52:00,52.0,11.0,30.16,North,0,0.0,3.0,19,0.00,,,0.00,,2013-03-15 01:52:00,
2013-03-14 21:02:00,52.0,11.0,30.16,North,0,0.0,3.0,19,0.00,,,0.00,,2013-03-15 02:02:00,
2013-03-14 21:12:00,52.0,11.0,30.16,North,0,0.0,3.0,19,0.00,,,0.00,,2013-03-15 02:12:00,
2013-03-14 21:22:00,48.0,10.0,30.20,North,0,0.0,2.0,21,0.00,,,0.00,,2013-03-15 02:22:00,
2013-03-14 21:32:00,48.0,10.0,30.20,North,0,0.0,2.0,21,0.00,,,0.00,,2013-03-15 02:32:00,
2013-03-14 21:42:00,48.0,10.0,30.20,North,0,0.0,2.0,21,0.00,,,0.00,,2013-03-15 02:42:00,
2013-03-14 21:52:00,45.0,10.0,30.10,North,0,0.0,1.0,24,0.00,,,0.00,,2013-03-15 02:52:00,
2013-03-14 22:02:00,45.0,10.0,30.10,North,0,0.0,1.0,24,0.00,,,0.00,,2013-03-15 03:02:00,
2013-03-14 22:12:00,45.0,10.0,30.10,North,0,0.0,1.0,24,0.00,,,0.00,,2013-03-15 03:12:00,
2013-03-14 22:22:00,43.0,9.0,30.12,North,0,1.0,3.0,24,0.00,,,0.00,,2013-03-15 03:22:00,
2013-03-14 22:33:00,43.0,9.0,30.12,North,0,1.0,3.0,24,0.00,,,0.00,,2013-03-15 03:33:00,
2013-03-14 22:43:00,43.0,9.0,30.12,North,0,1.0,3.0,24,0.00,,,0.00,,2013-03-15 03:43:00,
2013-03-14 22:53:00,41.0,10.0,30.08,North,0,0.0,3.0,28,0.00,,,0.00,,2013-03-15 03:53:00,
2013-03-14 23:03:00,41.0,10.0,30.08,North,0,0.0,3.0,28,0.00,,,0.00,,2013-03-15 04:03:00,
2013-03-14 23:12:00,41.0,10.0,30.08,North,0,0.0,3.0,28,0.00,,,0.00,,2013-03-15 04:12:00,
2013-03-14 23:23:00,39.0,9.0,30.10,North,349,0.0,5.0,29,0.00,,,0.00,,2013-03-15 04:23:00,
2013-03-14 23:32:00,39.0,9.0,30.10,North,349,0.0,5.0,29,0.00,,,0.00,,2013-03-15 04:32:00,
2013-03-14 23:43:00,39.0,9.0,30.10,North,349,0.0,5.0,29,0.00,,,0.00,,2013-03-15 04:43:00,
2013-03-14 23:53:00,38.0,10.0,30.10,North,349,1.0,3.0,31,0.00,,,0.00,,2013-03-15 04:53:00,